Time;durP1;ratioP1;P1;durP2;ratioP2;P2;SDS_P1;SDS_P2;PMS_P1;PMS_P2;Temp;Humidity;BMP_temperature;BMP_pressure;BME280_temperature;BME280_humidity;BME280_pressure;Samples;Min_cycle;Max_cycle;Signal;HPM_P1;HPM_P2
2022/05/21 00:00:15;;;;;;;7.25;6.43;;;;;;;;;;4992966;28;20034;-69
2022/05/21 00:02:41;;;;;;;10.02;6.78;;;;;;;;;;4993370;28;20476;-65
2022/05/21 00:05:07;;;;;;;10.00;7.35;;;;;;;;;;4996474;28;20030;-65
2022/05/21 00:07:32;;;;;;;8.55;6.43;;;;;;;;;;5002866;28;20109;-68
2022/05/21 00:09:58;;;;;;;9.93;6.70;;;;;;;;;;4991768;28;20449;-66
2022/05/21 00:12:24;;;;;;;9.20;7.20;;;;;;;;;;4983224;28;20105;-65
2022/05/21 00:14:52;;;;;;;10.38;7.63;;;;;;;;;;4981994;28;20045;-70
2022/05/21 00:17:17;;;;;;;9.07;7.43;;;;;;;;;;4982285;28;20034;-67
2022/05/21 00:19:43;;;;;;;10.75;8.20;;;;;;;;;;4983054;28;20395;-68
2022/05/21 00:22:08;;;;;;;10.63;8.50;;;;;;;;;;4983557;28;20066;-66
2022/05/21 00:24:34;;;;;;;10.73;8.75;;;;;;;;;;4982025;28;20353;-65
2022/05/21 00:26:59;;;;;;;11.80;8.43;;;;;;;;;;4983450;28;20049;-63
2022/05/21 00:29:27;;;;;;;11.88;8.32;;;;;;;;;;4984707;28;20100;-63
2022/05/21 00:31:52;;;;;;;11.70;8.25;;;;;;;;;;5003330;28;20036;-72
2022/05/21 00:34:20;;;;;;;9.90;6.90;;;;;;;;;;5010272;28;20026;-74
2022/05/21 00:36:46;;;;;;;12.43;9.63;;;;;;;;;;5012761;28;20022;-72
2022/05/21 00:39:11;;;;;;;13.57;10.40;;;;;;;;;;5012630;28;20042;-64
2022/05/21 00:41:38;;;;;;;15.27;10.48;;;;;;;;;;5012583;28;20041;-74
2022/05/21 00:44:05;;;;;;;11.48;10.07;;;;;;;;;;5012554;28;20058;-67
2022/05/21 00:46:39;;;;;;;12.32;10.63;;;;;;;;;;5012519;28;20034;-73
2022/05/21 00:49:40;;;;;;;14.05;10.35;;;;;;;;;;5012654;28;20034;-64
2022/05/21 00:52:17;;;;;;;14.50;10.70;;;;;;;;;;4990651;28;20034;-72
2022/05/21 00:54:50;;;;;;;12.55;10.77;;;;;;;;;;4990820;28;20048;-71
2022/05/21 00:57:34;;;;;;;15.57;10.93;;;;;;;;;;4990594;28;20520;-63
2022/05/21 01:00:10;;;;;;;14.32;11.00;;;;;;;;;;4990677;28;20038;-65
2022/05/21 01:02:56;;;;;;;14.45;11.18;;;;;;;;;;4990840;28;20030;-70
2022/05/21 01:05:26;;;;;;;12.18;10.68;;;;;;;;;;4990862;28;20034;-68
2022/05/21 01:07:55;;;;;;;11.77;9.88;;;;;;;;;;4974293;28;20473;-71
2022/05/21 01:10:23;;;;;;;12.32;8.20;;;;;;;;;;4970982;28;20111;-67
2022/05/21 01:12:53;;;;;;;11.10;8.90;;;;;;;;;;4970979;28;20043;-65
2022/05/21 01:15:32;;;;;;;11.63;7.60;;;;;;;;;;4971258;28;20035;-71
2022/05/21 01:17:58;;;;;;;8.63;7.30;;;;;;;;;;4973241;28;20034;-63
2022/05/21 01:20:36;;;;;;;7.18;6.40;;;;;;;;;;4976861;28;20137;-72
2022/05/21 01:23:01;;;;;;;4.10;2.72;;;;;;;;;;4974632;28;20027;-74
2022/05/21 01:25:29;;;;;;;3.60;2.20;;;;;;;;;;4980528;28;20373;-69
2022/05/21 01:27:55;;;;;;;3.40;1.17;;;;;;;;;;5004429;28;20038;-65
2022/05/21 01:30:30;;;;;;;2.45;1.17;;;;;;;;;;5005926;28;20037;-64
2022/05/21 01:32:55;;;;;;;1.20;0.77;;;;;;;;;;5004864;28;20080;-64
2022/05/21 01:35:21;;;;;;;5.60;1.00;;;;;;;;;;5006296;28;20013;-68
2022/05/21 01:37:47;;;;;;;3.53;0.90;;;;;;;;;;5004667;28;20060;-68
2022/05/21 01:40:17;;;;;;;3.65;0.60;;;;;;;;;;5004809;28;20197;-63
2022/05/21 01:42:43;;;;;;;5.53;0.75;;;;;;;;;;5006189;28;20025;-64
2022/05/21 01:45:09;;;;;;;1.15;0.50;;;;;;;;;;5004836;28;20030;-71
2022/05/21 01:47:37;;;;;;;14.50;1.02;;;;;;;;;;5004654;28;20034;-64
2022/05/21 01:50:03;;;;;;;2.83;0.63;;;;;;;;;;5005826;28;20050;-64
2022/05/21 01:52:29;;;;;;;5.35;0.65;;;;;;;;;;5004665;28;20028;-68
2022/05/21 01:54:54;;;;;;;4.97;0.60;;;;;;;;;;5004336;28;20018;-63
2022/05/21 01:57:21;;;;;;;2.97;0.60;;;;;;;;;;5005854;28;20521;-63
2022/05/21 01:59:46;;;;;;;3.10;0.63;;;;;;;;;;5004178;28;20026;-64
2022/05/21 02:02:12;;;;;;;5.35;0.70;;;;;;;;;;5004838;28;20025;-63
2022/05/21 02:04:38;;;;;;;8.95;0.60;;;;;;;;;;5004384;28;20018;-67
2022/05/21 02:07:04;;;;;;;0.82;0.50;;;;;;;;;;5001935;28;20105;-67
2022/05/21 02:09:29;;;;;;;1.73;0.50;;;;;;;;;;5006051;28;20429;-65
2022/05/21 02:11:55;;;;;;;2.75;0.95;;;;;;;;;;5004947;28;20150;-64
2022/05/21 02:14:20;;;;;;;2.08;0.70;;;;;;;;;;5003622;28;20035;-64
2022/05/21 02:16:46;;;;;;;2.67;1.02;;;;;;;;;;5005349;28;20116;-65
2022/05/21 02:19:12;;;;;;;1.63;0.75;;;;;;;;;;5005025;28;20108;-67
2022/05/21 02:21:40;;;;;;;1.65;0.70;;;;;;;;;;5000686;28;20498;-63
2022/05/21 02:24:08;;;;;;;6.68;0.80;;;;;;;;;;5004056;28;20101;-63
2022/05/21 02:26:38;;;;;;;2.70;1.15;;;;;;;;;;5005299;28;20109;-68
2022/05/21 02:29:04;;;;;;;7.78;0.95;;;;;;;;;;5003145;28;20029;-66
2022/05/21 02:31:30;;;;;;;1.85;0.82;;;;;;;;;;5003501;28;20026;-64
2022/05/21 02:33:56;;;;;;;5.63;1.10;;;;;;;;;;5005279;28;20026;-63
2022/05/21 02:39:25;;;;;;;5.20;1.05;;;;;;;;;;5003894;28;20022;-76
2022/05/21 02:39:25;;;;;;;7.45;1.33;;;;;;;;;;4992992;28;20377;-67
2022/05/21 02:41:51;;;;;;;10.90;1.40;;;;;;;;;;4991421;28;20034;-68
2022/05/21 02:44:17;;;;;;;2.47;1.17;;;;;;;;;;4987900;28;20113;-75
2022/05/21 02:46:43;;;;;;;8.88;1.75;;;;;;;;;;4983168;28;20576;-71
2022/05/21 02:49:08;;;;;;;8.73;1.27;;;;;;;;;;4983296;28;20026;-74
2022/05/21 02:51:34;;;;;;;13.90;1.50;;;;;;;;;;4984260;28;20076;-71
2022/05/21 02:53:59;;;;;;;6.32;1.50;;;;;;;;;;4982513;28;20027;-74
2022/05/21 02:56:25;;;;;;;2.47;1.30;;;;;;;;;;4983747;28;20026;-74
2022/05/21 02:58:50;;;;;;;6.57;1.48;;;;;;;;;;4976775;28;20061;-69
2022/05/21 03:01:15;;;;;;;2.55;1.30;;;;;;;;;;4974585;28;20031;-68
2022/05/21 03:03:41;;;;;;;3.33;1.25;;;;;;;;;;4974754;28;20027;-72
2022/05/21 03:06:06;;;;;;;5.00;1.30;;;;;;;;;;4978652;28;20396;-63
2022/05/21 03:11:16;;;;;;;3.30;1.75;;;;;;;;;;5013399;28;20537;-71
2022/05/21 03:13:41;;;;;;;12.88;1.30;;;;;;;;;;5013436;28;20030;-65
2022/05/21 03:16:07;;;;;;;3.85;1.33;;;;;;;;;;5013484;28;20061;-66
2022/05/21 03:18:33;;;;;;;13.73;1.98;;;;;;;;;;5012969;28;20113;-71
2022/05/21 03:20:58;;;;;;;3.40;1.13;;;;;;;;;;5011762;28;20053;-63
2022/05/21 03:23:24;;;;;;;1.90;1.40;;;;;;;;;;5013014;28;20037;-64
2022/05/21 03:25:49;;;;;;;3.25;1.38;;;;;;;;;;5013231;28;20521;-68
2022/05/21 03:28:17;;;;;;;5.25;1.70;;;;;;;;;;5013102;28;20037;-63
2022/05/21 03:30:43;;;;;;;2.65;1.23;;;;;;;;;;5013163;28;20034;-67
2022/05/21 03:33:09;;;;;;;2.25;1.27;;;;;;;;;;5012696;28;20034;-63
2022/05/21 03:35:35;;;;;;;5.55;1.45;;;;;;;;;;4994886;28;20073;-68
2022/05/21 03:38:01;;;;;;;2.40;1.13;;;;;;;;;;4992793;28;20058;-64
2022/05/21 03:40:29;;;;;;;6.07;1.27;;;;;;;;;;4992455;28;20092;-63
2022/05/21 03:42:54;;;;;;;7.80;1.38;;;;;;;;;;4993357;28;20030;-63
2022/05/21 03:45:20;;;;;;;4.97;1.20;;;;;;;;;;4993375;28;20107;-65
2022/05/21 03:47:46;;;;;;;3.67;1.50;;;;;;;;;;4993387;28;20123;-63
2022/05/21 03:50:15;;;;;;;5.72;1.60;;;;;;;;;;4992974;28;20105;-64
2022/05/21 03:52:40;;;;;;;6.55;1.50;;;;;;;;;;4993379;28;20032;-63
2022/05/21 03:55:07;;;;;;;5.88;1.55;;;;;;;;;;4993311;28;20110;-63
2022/05/21 03:57:33;;;;;;;3.03;1.67;;;;;;;;;;4993168;28;20092;-67
2022/05/21 03:59:58;;;;;;;2.40;1.60;;;;;;;;;;4992805;28;20093;-63
2022/05/21 04:02:25;;;;;;;3.95;1.45;;;;;;;;;;4992588;28;20034;-63
2022/05/21 04:04:50;;;;;;;2.53;1.50;;;;;;;;;;4992364;28;20100;-67
2022/05/21 04:07:16;;;;;;;7.65;2.22;;;;;;;;;;4981125;28;20027;-63
2022/05/21 04:09:42;;;;;;;5.15;1.90;;;;;;;;;;4973427;28;20484;-64
2022/05/21 04:12:08;;;;;;;8.05;2.05;;;;;;;;;;4973708;28;20388;-63
2022/05/21 04:14:34;;;;;;;2.90;1.63;;;;;;;;;;4972107;28;20034;-64
2022/05/21 04:17:02;;;;;;;7.50;1.80;;;;;;;;;;4972995;28;20445;-65
2022/05/21 04:19:29;;;;;;;6.35;1.80;;;;;;;;;;4973177;28;20485;-63
2022/05/21 04:21:55;;;;;;;5.43;2.03;;;;;;;;;;4972729;28;20138;-64
2022/05/21 04:24:21;;;;;;;3.45;1.60;;;;;;;;;;4972859;28;20038;-65
2022/05/21 04:26:47;;;;;;;7.85;1.90;;;;;;;;;;4973402;28;20023;-66
2022/05/21 04:29:15;;;;;;;7.32;2.72;;;;;;;;;;4973348;28;20026;-63
2022/05/21 04:31:41;;;;;;;9.02;1.80;;;;;;;;;;4972979;28;20031;-63
2022/05/21 04:34:07;;;;;;;6.75;2.00;;;;;;;;;;4973328;28;20031;-63
2022/05/21 04:36:33;;;;;;;7.22;2.08;;;;;;;;;;4973347;28;20033;-63
2022/05/21 04:38:59;;;;;;;10.48;2.33;;;;;;;;;;4973465;28;20035;-68
2022/05/21 04:41:25;;;;;;;4.32;1.20;;;;;;;;;;4973423;28;20108;-67
2022/05/21 04:43:53;;;;;;;2.75;1.00;;;;;;;;;;4973384;28;20051;-63
2022/05/21 04:46:20;;;;;;;8.20;1.80;;;;;;;;;;4972910;28;20038;-64
2022/05/21 04:48:46;;;;;;;9.38;1.60;;;;;;;;;;4972392;28;20031;-64
2022/05/21 04:51:12;;;;;;;2.95;1.50;;;;;;;;;;4972505;28;20428;-71
2022/05/21 04:53:38;;;;;;;3.60;1.33;;;;;;;;;;4976354;28;20022;-64
2022/05/21 04:56:04;;;;;;;2.22;1.40;;;;;;;;;;4976856;28;20031;-64
2022/05/21 04:58:30;;;;;;;6.15;1.90;;;;;;;;;;4976937;28;20030;-63
2022/05/21 05:00:55;;;;;;;7.00;1.60;;;;;;;;;;4977004;28;20038;-63
2022/05/21 05:03:21;;;;;;;5.10;1.50;;;;;;;;;;4976724;28;20453;-65
2022/05/21 05:05:47;;;;;;;2.35;1.23;;;;;;;;;;4976871;28;20034;-67
2022/05/21 05:08:15;;;;;;;4.18;1.40;;;;;;;;;;4995704;28;20038;-74
2022/05/21 05:10:42;;;;;;;6.82;1.25;;;;;;;;;;4996027;28;20030;-70
2022/05/21 05:13:08;;;;;;;9.98;1.27;;;;;;;;;;4996126;28;20030;-69
2022/05/21 05:15:34;;;;;;;4.18;1.30;;;;;;;;;;4995943;28;20045;-63
2022/05/21 05:18:00;;;;;;;4.15;1.20;;;;;;;;;;4995271;28;20101;-64
2022/05/21 05:20:26;;;;;;;4.30;1.35;;;;;;;;;;4995192;28;20026;-65
2022/05/21 05:22:52;;;;;;;3.20;1.45;;;;;;;;;;4995257;28;20089;-67
2022/05/21 05:25:17;;;;;;;2.90;1.23;;;;;;;;;;4995674;28;20030;-63
2022/05/21 05:27:43;;;;;;;7.43;1.95;;;;;;;;;;4995940;28;20400;-64
2022/05/21 05:30:09;;;;;;;5.00;1.98;;;;;;;;;;4996059;28;20069;-66
2022/05/21 05:32:34;;;;;;;1.45;1.02;;;;;;;;;;4995782;28;20030;-66
2022/05/21 05:35:00;;;;;;;3.95;1.30;;;;;;;;;;4995858;28;20383;-69
2022/05/21 05:37:25;;;;;;;3.92;1.67;;;;;;;;;;4995869;28;20133;-64
2022/05/21 05:39:54;;;;;;;2.35;1.65;;;;;;;;;;4995684;28;20031;-66
2022/05/21 05:42:20;;;;;;;2.65;1.70;;;;;;;;;;4994465;28;20034;-64
2022/05/21 05:44:45;;;;;;;8.07;2.00;;;;;;;;;;4995612;28;20486;-64
2022/05/21 05:47:10;;;;;;;3.65;2.20;;;;;;;;;;4994802;28;20037;-67
2022/05/21 05:49:36;;;;;;;4.40;1.83;;;;;;;;;;4994804;28;20030;-63
2022/05/21 05:52:02;;;;;;;3.47;1.70;;;;;;;;;;4994490;28;20073;-65
2022/05/21 05:54:27;;;;;;;3.58;1.50;;;;;;;;;;4994966;28;20118;-73
2022/05/21 05:56:52;;;;;;;3.05;1.40;;;;;;;;;;4995518;28;20036;-73
2022/05/21 06:04:46;;;;;;;2.92;1.13;;;;;;;;;;4995676;28;20069;-67
2022/05/21 06:07:15;;;;;;;4.28;1.75;;;;;;;;;;5005919;28;20471;-64
2022/05/21 06:09:41;;;;;;;2.33;1.42;;;;;;;;;;5014736;28;20034;-63
2022/05/21 06:12:08;;;;;;;2.53;1.35;;;;;;;;;;5014630;28;20085;-66
2022/05/21 06:14:37;;;;;;;2.05;1.10;;;;;;;;;;5014709;28;20026;-64
2022/05/21 06:17:02;;;;;;;2.92;1.52;;;;;;;;;;5014441;28;20026;-67
2022/05/21 06:19:28;;;;;;;1.50;1.00;;;;;;;;;;5014475;28;20032;-64
2022/05/21 06:22:02;;;;;;;3.50;1.52;;;;;;;;;;5012543;28;20045;-63
2022/05/21 06:24:34;;;;;;;5.03;1.30;;;;;;;;;;4994559;28;20050;-64
2022/05/21 06:26:59;;;;;;;;;;;;;;;;;;4995453;28;20387;-66
2022/05/21 06:29:25;;;;;;;3.97;1.23;;;;;;;;;;4994555;28;19918;-63
2022/05/21 06:31:50;;;;;;;5.43;1.33;;;;;;;;;;4994506;28;20030;-67
2022/05/21 06:34:15;;;;;;;3.72;1.30;;;;;;;;;;4994837;28;20026;-67
2022/05/21 06:36:41;;;;;;;3.45;1.23;;;;;;;;;;4994833;28;20030;-72
2022/05/21 06:39:06;;;;;;;4.82;1.70;;;;;;;;;;4994695;28;20027;-76
2022/05/21 06:41:32;;;;;;;5.88;1.45;;;;;;;;;;4994392;28;20105;-66
2022/05/21 06:43:58;;;;;;;4.68;1.65;;;;;;;;;;4994788;28;20057;-69
2022/05/21 06:46:24;;;;;;;5.10;1.65;;;;;;;;;;4992884;28;20022;-76
2022/05/21 06:48:49;;;;;;;5.45;1.50;;;;;;;;;;4994379;28;20028;-75
2022/05/21 06:51:15;;;;;;;2.08;1.08;;;;;;;;;;4994166;28;20468;-64
2022/05/21 06:53:41;;;;;;;8.88;1.60;;;;;;;;;;4994416;28;20050;-74
2022/05/21 06:56:08;;;;;;;3.50;1.27;;;;;;;;;;4994135;28;20034;-72
2022/05/21 06:58:34;;;;;;;7.03;1.42;;;;;;;;;;4994229;28;20498;-69
2022/05/21 07:01:00;;;;;;;2.75;1.35;;;;;;;;;;4992185;28;20026;-73
2022/05/21 07:03:25;;;;;;;7.47;1.60;;;;;;;;;;4993621;28;20029;-74
2022/05/21 07:08:36;;;;;;;5.45;1.38;;;;;;;;;;4974449;28;20089;-69
2022/05/21 07:11:02;;;;;;;3.78;1.50;;;;;;;;;;4974523;28;20043;-63
2022/05/21 07:13:30;;;;;;;5.55;1.40;;;;;;;;;;4974275;28;20031;-72
2022/05/21 07:15:57;;;;;;;2.97;1.42;;;;;;;;;;4973414;28;20477;-63
2022/05/21 07:18:25;;;;;;;2.85;1.30;;;;;;;;;;4973770;28;20039;-66
2022/05/21 07:20:50;;;;;;;7.88;1.60;;;;;;;;;;4973259;28;20560;-63
2022/05/21 07:23:16;;;;;;;2.80;1.13;;;;;;;;;;4973556;28;20125;-68
2022/05/21 07:25:42;;;;;;;6.63;1.73;;;;;;;;;;4973981;28;20031;-73
2022/05/21 07:28:09;;;;;;;3.28;1.30;;;;;;;;;;4974242;28;20117;-63
2022/05/21 07:30:35;;;;;;;3.97;1.60;;;;;;;;;;4974111;28;20039;-71
2022/05/21 07:33:01;;;;;;;5.28;1.45;;;;;;;;;;4974060;28;20480;-63
2022/05/21 07:35:28;;;;;;;4.82;1.30;;;;;;;;;;4973905;28;20043;-74
2022/05/21 07:37:54;;;;;;;9.00;1.70;;;;;;;;;;4973784;28;20444;-73
2022/05/21 07:40:21;;;;;;;3.70;1.00;;;;;;;;;;4973933;28;20031;-67
2022/05/21 07:42:47;;;;;;;3.47;1.10;;;;;;;;;;4973996;28;20487;-67
2022/05/21 07:45:15;;;;;;;6.15;1.15;;;;;;;;;;4973847;28;20034;-65
2022/05/21 07:47:40;;;;;;;7.07;1.58;;;;;;;;;;4973335;28;20511;-67
2022/05/21 07:50:07;;;;;;;2.53;1.00;;;;;;;;;;4973330;28;20031;-69
2022/05/21 07:52:33;;;;;;;4.00;1.30;;;;;;;;;;4973317;28;20439;-67
2022/05/21 07:54:59;;;;;;;3.42;1.55;;;;;;;;;;4973179;28;20101;-75
2022/05/21 07:57:24;;;;;;;3.22;1.20;;;;;;;;;;4973580;28;20146;-72
2022/05/21 07:59:50;;;;;;;6.70;1.40;;;;;;;;;;4973820;28;20027;-63
2022/05/21 08:02:18;;;;;;;1.77;0.93;;;;;;;;;;4973730;28;20396;-66
2022/05/21 08:04:45;;;;;;;5.38;1.30;;;;;;;;;;4973680;28;20089;-70
2022/05/21 08:07:11;;;;;;;4.45;1.70;;;;;;;;;;4994844;28;20088;-64
2022/05/21 08:09:37;;;;;;;4.35;1.30;;;;;;;;;;5012870;28;20038;-64
2022/05/21 08:12:04;;;;;;;8.00;1.48;;;;;;;;;;5012431;28;20030;-66
2022/05/21 08:14:30;;;;;;;4.88;1.25;;;;;;;;;;5012695;28;20018;-65
2022/05/21 08:16:56;;;;;;;3.78;1.23;;;;;;;;;;5001702;28;20026;-63
2022/05/21 08:19:21;;;;;;;4.47;1.30;;;;;;;;;;4974502;28;20034;-66
2022/05/21 08:21:47;;;;;;;4.05;1.30;;;;;;;;;;4973475;28;20050;-67
2022/05/21 08:26:57;;;;;;;5.35;1.17;;;;;;;;;;4976505;28;20126;-71
2022/05/21 08:29:32;;;;;;;6.28;1.55;;;;;;;;;;4977896;28;20058;-69
2022/05/21 08:31:58;;;;;;;3.03;1.25;;;;;;;;;;4977764;28;20030;-65
2022/05/21 08:34:25;;;;;;;5.85;1.40;;;;;;;;;;4977721;28;20143;-73
2022/05/21 08:36:53;;;;;;;4.60;1.50;;;;;;;;;;4977652;28;20053;-73
2022/05/21 08:39:19;;;;;;;3.78;1.42;;;;;;;;;;4977733;28;20026;-68
2022/05/21 08:41:56;;;;;;;3.40;1.17;;;;;;;;;;4977515;28;20045;-77
2022/05/21 08:44:43;;;;;;;6.57;1.30;;;;;;;;;;4977589;28;20109;-72
2022/05/21 08:47:22;;;;;;;4.40;1.25;;;;;;;;;;4994387;28;20036;-68
2022/05/21 08:49:57;;;;;;;7.85;1.60;;;;;;;;;;4997100;28;20041;-76
2022/05/21 08:52:30;;;;;;;5.22;1.30;;;;;;;;;;4996834;28;20129;-71
2022/05/21 08:54:58;;;;;;;4.15;1.38;;;;;;;;;;4996893;28;20376;-70
2022/05/21 08:57:42;;;;;;;3.55;1.25;;;;;;;;;;4996877;28;20031;-71
2022/05/21 09:00:15;;;;;;;6.15;1.70;;;;;;;;;;4995606;28;20027;-73
2022/05/21 09:02:41;;;;;;;5.75;2.03;;;;;;;;;;4977050;28;20034;-69
2022/05/21 09:05:12;;;;;;;4.65;1.23;;;;;;;;;;4977310;28;20059;-75
2022/05/21 09:07:48;;;;;;;3.83;1.38;;;;;;;;;;5010843;28;20071;-75
2022/05/21 09:10:38;;;;;;;2.80;1.45;;;;;;;;;;5015925;28;20096;-70
2022/05/21 09:13:31;;;;;;;11.77;1.80;;;;;;;;;;5015892;28;20025;-75
2022/05/21 09:18:41;;;;;;;7.32;1.85;;;;;;;;;;5015993;28;20525;-73
2022/05/21 09:21:15;;;;;;;3.20;1.23;;;;;;;;;;5006137;28;20162;-77
2022/05/21 09:23:53;;;;;;;5.00;1.50;;;;;;;;;;4996017;28;20525;-72
2022/05/21 09:26:46;;;;;;;7.57;1.60;;;;;;;;;;4996139;28;20026;-76
2022/05/21 09:29:20;;;;;;;3.80;1.40;;;;;;;;;;4995642;28;20131;-70
2022/05/21 09:31:46;;;;;;;3.05;1.52;;;;;;;;;;4992181;28;20037;-76
2022/05/21 09:34:26;;;;;;;4.78;2.05;;;;;;;;;;4985322;28;20031;-72
2022/05/21 09:36:52;;;;;;;7.90;1.90;;;;;;;;;;4994361;28;20029;-72
2022/05/21 09:39:38;;;;;;;2.72;1.90;;;;;;;;;;5014885;28;20042;-72
2022/05/21 09:45:22;;;;;;;6.82;2.78;;;;;;;;;;5015252;28;20124;-73
2022/05/21 09:47:49;;;;;;;5.82;3.10;;;;;;;;;;5015478;28;20026;-70
2022/05/21 09:50:20;;;;;;;7.40;2.92;;;;;;;;;;5015237;28;20028;-73
2022/05/21 09:52:47;;;;;;;7.47;3.58;;;;;;;;;;5015218;28;20475;-73
2022/05/21 09:55:25;;;;;;;10.60;3.90;;;;;;;;;;5015151;28;20041;-71
2022/05/21 09:57:51;;;;;;;6.07;3.90;;;;;;;;;;4994695;28;20368;-72
2022/05/21 10:00:24;;;;;;;6.03;3.70;;;;;;;;;;4995388;28;20483;-72
2022/05/21 10:02:56;;;;;;;6.63;3.15;;;;;;;;;;4995484;28;20514;-70
2022/05/21 10:05:47;;;;;;;6.25;3.80;;;;;;;;;;4995546;28;20030;-74
2022/05/21 10:11:29;;;;;;;6.20;3.92;;;;;;;;;;5014930;28;20092;-67
2022/05/21 10:14:29;;;;;;;5.93;3.38;;;;;;;;;;5014872;28;20463;-67
2022/05/21 10:16:57;;;;;;;;;;;;;;;;;;4963053;28;20078;-71
2022/05/21 10:19:40;;;;;;;5.43;3.20;;;;;;;;;;4951884;29;19966;-63
2022/05/21 10:22:14;;;;;;;5.50;3.90;;;;;;;;;;4953567;28;20122;-69
2022/05/21 10:24:45;;;;;;;6.68;4.25;;;;;;;;;;4948895;28;20055;-68
2022/05/21 10:27:29;;;;;;;5.47;3.92;;;;;;;;;;4950234;29;20035;-75
2022/05/21 10:30:38;;;;;;;5.25;4.00;;;;;;;;;;4953773;28;20035;-75
2022/05/21 10:33:29;;;;;;;7.50;3.57;;;;;;;;;;4938764;29;20233;-72
2022/05/21 10:36:07;;;;;;;6.88;4.00;;;;;;;;;;4953699;28;20281;-75
2022/05/21 10:38:38;;;;;;;7.75;3.55;;;;;;;;;;4938589;29;20035;-76
2022/05/21 10:41:34;;;;;;;6.78;4.10;;;;;;;;;;4953400;28;20049;-74
2022/05/21 10:44:12;;;;;;;5.93;3.42;;;;;;;;;;4953540;29;20115;-76
2022/05/21 10:46:56;;;;;;;6.25;3.80;;;;;;;;;;4939015;29;20039;-75
2022/05/21 10:49:47;;;;;;;5.78;4.18;;;;;;;;;;4951921;28;20469;-69
2022/05/21 10:52:59;;;;;;;6.88;3.33;;;;;;;;;;4880061;29;20414;-74
2022/05/21 10:55:42;;;;;;;6.35;3.67;;;;;;;;;;4928809;29;20078;-74
2022/05/21 10:58:34;;;;;;;8.35;3.55;;;;;;;;;;4931518;29;20460;-68
2022/05/21 11:01:29;;;;;;;5.82;3.53;;;;;;;;;;4933949;29;20520;-77
2022/05/21 11:04:18;;;;;;;5.00;3.78;;;;;;;;;;4933877;29;20083;-72
2022/05/21 11:07:11;;;;;;;7.47;3.58;;;;;;;;;;4933514;29;20023;-71
2022/05/21 11:09:55;;;;;;;5.05;3.83;;;;;;;;;;4933958;29;20540;-72
2022/05/21 11:12:26;;;;;;;6.85;3.83;;;;;;;;;;4919087;29;20086;-69
2022/05/21 11:15:03;;;;;;;6.05;4.03;;;;;;;;;;4933898;29;20142;-70
2022/05/21 11:17:43;;;;;;;8.18;3.70;;;;;;;;;;4933967;29;20027;-71
2022/05/21 11:20:25;;;;;;;7.47;3.83;;;;;;;;;;4933703;29;20492;-67
2022/05/21 11:23:11;;;;;;;5.82;3.85;;;;;;;;;;4933877;29;20064;-64
2022/05/21 11:26:08;;;;;;;7.85;4.57;;;;;;;;;;4933880;29;20409;-73
2022/05/21 11:28:53;;;;;;;7.18;3.55;;;;;;;;;;4938902;28;20548;-71
2022/05/21 11:37:20;;;;;;;7.28;3.60;;;;;;;;;;4993660;28;20053;-70
2022/05/21 11:39:40;;;;;;;6.45;3.80;;;;;;;;;;4993851;28;20068;-72
2022/05/21 11:42:05;;;;;;;6.50;4.00;;;;;;;;;;4993576;28;20030;-71
2022/05/21 11:44:55;;;;;;;4.97;3.70;;;;;;;;;;4993440;28;20454;-68
2022/05/21 11:47:21;;;;;;;;;;;;;;;;;;4994258;28;20030;-67
2022/05/21 11:49:52;;;;;;;6.88;3.35;;;;;;;;;;4993318;28;19960;-71
2022/05/21 11:52:26;;;;;;;5.07;3.40;;;;;;;;;;4993272;28;20031;-70
2022/05/21 11:54:58;;;;;;;5.80;3.63;;;;;;;;;;4992232;28;20026;-70
2022/05/21 11:57:39;;;;;;;7.47;3.83;;;;;;;;;;4993591;28;20054;-71
2022/05/21 12:00:25;;;;;;;5.85;3.22;;;;;;;;;;4992361;28;20022;-65
2022/05/21 12:02:53;;;;;;;4.90;3.08;;;;;;;;;;4992362;28;20057;-70
2022/05/21 12:05:34;;;;;;;10.30;3.83;;;;;;;;;;4993192;28;20022;-68
2022/05/21 12:08:21;;;;;;;8.20;3.20;;;;;;;;;;4993122;28;20116;-70
2022/05/21 12:11:06;;;;;;;5.18;3.38;;;;;;;;;;4992880;28;20033;-71
2022/05/21 12:13:34;;;;;;;8.38;3.50;;;;;;;;;;4992851;28;20022;-72
2022/05/21 12:16:07;;;;;;;7.75;2.97;;;;;;;;;;4993244;28;20039;-70
2022/05/21 12:18:46;;;;;;;4.57;3.00;;;;;;;;;;4993225;28;20097;-69
2022/05/21 12:21:40;;;;;;;5.65;3.08;;;;;;;;;;4993077;28;20105;-70
2022/05/21 12:24:34;;;;;;;4.78;3.08;;;;;;;;;;4990731;28;20031;-72
2022/05/21 12:27:02;;;;;;;5.68;3.03;;;;;;;;;;4993240;28;20084;-69
2022/05/21 12:29:31;;;;;;;5.95;2.80;;;;;;;;;;4993297;28;20110;-70
2022/05/21 12:32:00;;;;;;;4.57;2.35;;;;;;;;;;4993313;28;20026;-72
2022/05/21 12:34:49;;;;;;;6.93;3.20;;;;;;;;;;4993256;28;20142;-71
2022/05/21 12:37:18;;;;;;;6.88;3.00;;;;;;;;;;4993237;28;20034;-69
2022/05/21 12:39:48;;;;;;;4.63;2.83;;;;;;;;;;4993132;28;20026;-71
2022/05/21 12:42:23;;;;;;;5.97;3.03;;;;;;;;;;4993242;28;20252;-71
2022/05/21 12:44:49;;;;;;;8.75;3.13;;;;;;;;;;4993304;28;20380;-71
2022/05/21 12:47:29;;;;;;;5.63;3.20;;;;;;;;;;4992926;28;20030;-69
2022/05/21 12:49:56;;;;;;;7.95;3.78;;;;;;;;;;4993145;28;20025;-66
2022/05/21 12:52:41;;;;;;;3.47;1.40;;;;;;;;;;4992977;28;20030;-71
2022/05/21 12:55:19;;;;;;;1.60;0.98;;;;;;;;;;4993230;28;20096;-67
2022/05/21 12:57:46;;;;;;;2.75;0.88;;;;;;;;;;4993140;28;20026;-71
2022/05/21 13:00:14;;;;;;;4.63;1.70;;;;;;;;;;4992946;28;20038;-71
2022/05/21 13:02:53;;;;;;;4.80;1.42;;;;;;;;;;4992874;28;20061;-71
2022/05/21 13:05:19;;;;;;;4.75;1.80;;;;;;;;;;4993146;28;20023;-72
2022/05/21 13:07:47;;;;;;;3.10;1.60;;;;;;;;;;4992792;28;20116;-72
2022/05/21 13:10:22;;;;;;;5.38;2.25;;;;;;;;;;4992918;28;20429;-71
2022/05/21 13:13:09;;;;;;;6.32;2.42;;;;;;;;;;4993732;28;20116;-70
2022/05/21 13:15:44;;;;;;;4.05;2.58;;;;;;;;;;4996348;28;20053;-68
2022/05/21 13:18:15;;;;;;;4.75;2.92;;;;;;;;;;4996572;28;20022;-70
2022/05/21 13:21:02;;;;;;;6.07;3.13;;;;;;;;;;4996225;28;20037;-70
2022/05/21 13:23:51;;;;;;;5.78;3.22;;;;;;;;;;4996458;28;20073;-71
2022/05/21 13:26:27;;;;;;;5.63;3.90;;;;;;;;;;4996452;28;20019;-69
2022/05/21 13:29:17;;;;;;;5.10;3.70;;;;;;;;;;4994929;28;20023;-69
2022/05/21 13:31:43;;;;;;;9.43;4.07;;;;;;;;;;4996073;28;20038;-70
2022/05/21 13:34:15;;;;;;;4.85;3.00;;;;;;;;;;4996255;28;20113;-71
2022/05/21 13:36:47;;;;;;;5.75;3.25;;;;;;;;;;4996301;28;20069;-65
2022/05/21 13:39:25;;;;;;;4.38;3.03;;;;;;;;;;4996088;28;20046;-69
2022/05/21 13:41:52;;;;;;;3.95;2.53;;;;;;;;;;4996201;28;20561;-69
2022/05/21 13:44:24;;;;;;;5.28;2.63;;;;;;;;;;4995925;28;20034;-70
2022/05/21 13:46:56;;;;;;;5.60;2.58;;;;;;;;;;4995838;28;20093;-69
2022/05/21 13:49:36;;;;;;;5.00;2.95;;;;;;;;;;4996004;28;20026;-71
2022/05/21 13:52:03;;;;;;;4.70;3.17;;;;;;;;;;4995894;28;20069;-71
2022/05/21 13:54:31;;;;;;;4.43;3.05;;;;;;;;;;4995851;28;20031;-72
2022/05/21 13:57:24;;;;;;;3.90;2.50;;;;;;;;;;4995955;28;20057;-71
2022/05/21 14:00:06;;;;;;;4.20;2.92;;;;;;;;;;4995526;28;20054;-72
2022/05/21 14:02:48;;;;;;;2.65;2.13;;;;;;;;;;4994478;28;20427;-70
2022/05/21 14:05:30;;;;;;;3.95;2.13;;;;;;;;;;4995668;28;20322;-68
2022/05/21 14:08:07;;;;;;;4.53;1.92;;;;;;;;;;4995460;28;20049;-72
2022/05/21 14:10:49;;;;;;;3.25;2.20;;;;;;;;;;4995327;28;20440;-71
2022/05/21 14:13:33;;;;;;;4.25;2.08;;;;;;;;;;4995562;28;20034;-68
2022/05/21 14:16:02;;;;;;;5.47;2.60;;;;;;;;;;4995268;28;20026;-65
2022/05/21 14:18:43;;;;;;;4.45;2.17;;;;;;;;;;4995338;28;20034;-69
2022/05/21 14:21:17;;;;;;;;;;;;;;;;;;4995593;28;20057;-67
2022/05/21 14:23:43;;;;;;;2.97;1.80;;;;;;;;;;4994972;28;19920;-70
2022/05/21 14:26:27;;;;;;;6.70;2.25;;;;;;;;;;4995354;28;20022;-67
2022/05/21 14:28:53;;;;;;;5.43;2.05;;;;;;;;;;4994984;28;20030;-64
2022/05/21 14:31:33;;;;;;;3.47;1.90;;;;;;;;;;4995094;28;20100;-71
2022/05/21 14:34:03;;;;;;;5.65;1.90;;;;;;;;;;4995131;28;20022;-64
2022/05/21 14:36:41;;;;;;;4.28;1.70;;;;;;;;;;4995114;28;20384;-63
2022/05/21 14:39:10;;;;;;;3.85;1.90;;;;;;;;;;4995080;28;20030;-63
2022/05/21 14:41:39;;;;;;;4.55;2.30;;;;;;;;;;4994961;28;20030;-65
2022/05/21 14:44:13;;;;;;;6.28;2.53;;;;;;;;;;4994905;28;20423;-64
2022/05/21 14:49:22;;;;;;;3.40;2.10;;;;;;;;;;4995051;28;20443;-67
2022/05/21 14:54:39;;;;;;;3.30;1.55;;;;;;;;;;4994901;28;20036;-64
2022/05/21 14:57:08;;;;;;;3.05;1.20;;;;;;;;;;4994789;28;20429;-64
2022/05/21 14:59:33;;;;;;;3.10;1.10;;;;;;;;;;4994674;28;20026;-64
2022/05/21 15:01:59;;;;;;;2.75;1.23;;;;;;;;;;4994773;28;20088;-64
2022/05/21 15:04:24;;;;;;;3.40;1.27;;;;;;;;;;4994619;28;20026;-64
2022/05/21 15:06:51;;;;;;;2.55;1.38;;;;;;;;;;4994164;28;20066;-66
2022/05/21 15:09:16;;;;;;;3.15;1.02;;;;;;;;;;4994447;28;20031;-64
2022/05/21 15:11:47;;;;;;;1.77;0.93;;;;;;;;;;4994139;28;20038;-64
2022/05/21 15:14:14;;;;;;;1.98;0.90;;;;;;;;;;4994390;28;20026;-64
2022/05/21 15:16:39;;;;;;;2.55;1.00;;;;;;;;;;4994403;28;20038;-64
2022/05/21 15:19:05;;;;;;;2.28;1.25;;;;;;;;;;4994294;28;20379;-65
2022/05/21 15:21:33;;;;;;;1.85;1.00;;;;;;;;;;4993902;28;20053;-64
2022/05/21 15:23:58;;;;;;;1.73;1.00;;;;;;;;;;4994099;28;20026;-64
2022/05/21 15:26:26;;;;;;;2.22;1.17;;;;;;;;;;4992407;28;20029;-64
2022/05/21 15:28:52;;;;;;;3.35;1.70;;;;;;;;;;4993987;28;20030;-66
2022/05/21 15:31:19;;;;;;;2.80;1.30;;;;;;;;;;4994006;28;20390;-64
2022/05/21 15:33:45;;;;;;;4.20;2.08;;;;;;;;;;4994011;28;20026;-64
2022/05/21 15:36:11;;;;;;;4.22;1.02;;;;;;;;;;4993393;28;20093;-65
2022/05/21 15:38:36;;;;;;;3.67;1.40;;;;;;;;;;4993954;28;20077;-64